Ash Shaykh Uthman, Yemen
Current Conditions -  °F | °C
As of 9:00 AM on Thursday 29 Jan 2015 (Local Time) from OYAA Reporting Station
Scattered Clouds Scattered Clouds  
Wind Chill: 77°   Ceiling: Unl
Heat Index: 79°   Visibility: 6mi
Dew Point: 64°   Wind: 14mph
Humidity: 65%   Direction: 60°ENE
Pressure: 30.03"   Gusts: NA
Location:  12.87°N, 44.98°E
Report Text: OYAA 290600Z 06012KT 9999 SCT018 25/18 Q1017 NOSIG
Loading
Personal Weather Stations






























Interactive Weather Map New forecast layout! Learn more

10-Day Weather Forecast

Advertisements
Track Severe Weather on mobile